Kwethluk Airport

About
Name: Kwethluk Airport
Identifier:  KWT/PFKW
Serves:  Kwethluk, Alaska
Owner:  State of Alaska DOT&PF - Central Region
Public/Private:  Public
Local Time:  18. Aug 08:58 AKDT
Description: Kwethluk Airport is a state-owned public-use airport located in Kwethluk, a city in the Bethel Census Area of the U.S. state of Alaska.[1]
Source: Wikipedia
Location
Runways
Identifier Length (m/ft) Surface
18/36 3,198/3,198 Gravel
Flights per Day
5 flights
Distance: 18km (11mi)
Punctuality
72% (1 flights per day delayed)
Delay Average: 28 minutes
Current Weather
 8 C (Humidity: 93%)
  7kt (12km/h / 8mph) from 20°
  16km (10 mi.)
 
 METAR PFKW 181556Z AUTO 02007KT 10SM CLR 08/07 A3034 RMK AO2 SLPNO T00830067

Current Flights

Departures
Number Departure To Airline
 7H3171 16:15 +1345  Bethel Ravn Alaska
Arrivals
Number Arrival From Airline

Current Delays

Departures
N/A
Arrivals
N/A

Destinations

Top Destinations
Airport Flights
per week
Seats
per week
  Anchorage (ANC) 0 - 0 0

Airlines & Planes

Top Airlines
Airline Flights
per Day
Seats
per Day
  Alaska Airlines 0 -
Top Plane Types
Model Flights Seats
Boeing B737-700 0.0/day - 0